createdAt,value
2017-05-09T00:01:46.368Z,86.271
2017-05-09T00:04:40.227Z,86.188
2017-05-09T00:07:34.098Z,86.282
2017-05-09T00:10:27.910Z,86.099
2017-05-09T00:13:21.699Z,86.206
2017-05-09T00:16:15.491Z,86.076
2017-05-09T00:19:11.063Z,86.147
2017-05-09T00:22:03.053Z,86.575
2017-05-09T00:24:56.924Z,86.231
2017-05-09T00:27:50.792Z,85.833
2017-05-09T00:30:44.693Z,85.802
2017-05-09T00:33:38.544Z,85.827
2017-05-09T00:36:32.478Z,85.796
2017-05-09T00:39:26.313Z,85.593
2017-05-09T00:42:20.182Z,85.711
2017-05-09T00:45:15.649Z,85.294
2017-05-09T00:48:07.761Z,85.216
2017-05-09T00:51:03.392Z,84.795
2017-05-09T00:53:57.263Z,84.589
2017-05-09T00:56:49.435Z,84.723
2017-05-09T00:59:43.257Z,84.703
2017-05-09T01:02:38.789Z,84.831
2017-05-09T01:05:31.045Z,84.829
2017-05-09T01:08:24.977Z,85.027
2017-05-09T01:11:19.219Z,84.484
2017-05-09T01:14:13.118Z,84.728
2017-05-09T01:17:07.000Z,84.505
2017-05-09T01:20:00.839Z,84.671
2017-05-09T01:22:54.682Z,84.885
2017-05-09T01:25:50.320Z,84.912
2017-05-09T01:28:42.586Z,84.649
2017-05-09T01:31:38.186Z,84.500
2017-05-09T01:34:30.208Z,84.563
2017-05-09T01:37:25.906Z,84.953
2017-05-09T01:40:18.009Z,85.109
2017-05-09T01:43:11.831Z,85.304
2017-05-09T01:46:05.756Z,85.186
2017-05-09T01:48:59.605Z,85.403
2017-05-09T01:51:55.244Z,85.559
2017-05-09T01:54:49.276Z,85.774
2017-05-09T01:57:41.448Z,86.150
2017-05-09T02:00:35.281Z,86.480
2017-05-09T02:03:31.007Z,86.216
2017-05-09T02:06:24.814Z,86.230
2017-05-09T02:09:17.066Z,86.204
2017-05-09T02:12:10.936Z,86.394
2017-05-09T02:15:04.718Z,86.286
2017-05-09T02:18:00.341Z,86.354
2017-05-09T02:20:52.596Z,86.290
2017-05-09T02:23:46.507Z,86.333
2017-05-09T02:26:40.427Z,85.977
2017-05-09T02:29:36.124Z,86.095
2017-05-09T02:32:28.476Z,85.983
2017-05-09T02:35:24.233Z,85.899
2017-05-09T02:38:16.302Z,86.041
2017-05-09T02:41:10.140Z,86.159
2017-05-09T02:44:03.978Z,86.159
2017-05-09T02:46:59.546Z,86.069
2017-05-09T02:49:51.855Z,86.201
2017-05-09T02:52:45.808Z,86.667
2017-05-09T02:55:41.534Z,86.786
2017-05-09T02:58:33.674Z,86.671
2017-05-09T03:01:27.645Z,86.428
2017-05-09T03:04:23.240Z,86.708
2017-05-09T03:07:17.094Z,86.563
2017-05-09T03:10:09.236Z,86.192
2017-05-09T03:13:03.187Z,86.209
2017-05-09T03:15:56.941Z,86.026
2017-05-09T03:18:50.825Z,86.051
2017-05-09T03:21:45.042Z,85.998
2017-05-09T03:24:38.894Z,86.266
2017-05-09T03:27:32.774Z,86.296
2017-05-09T03:30:28.255Z,86.312
2017-05-09T03:33:22.068Z,86.350
2017-05-09T03:36:14.382Z,86.757
2017-05-09T03:39:08.299Z,86.636
2017-05-09T03:42:03.935Z,86.474
2017-05-09T03:44:56.094Z,86.291
2017-05-09T03:47:51.748Z,86.512
2017-05-09T03:50:44.421Z,86.636
2017-05-09T03:53:38.259Z,86.396
2017-05-09T03:56:32.072Z,86.538
2017-05-09T03:59:27.774Z,86.417
2017-05-09T04:02:20.056Z,86.332
2017-05-09T04:05:13.954Z,86.353
2017-05-09T04:08:07.803Z,86.273
2017-05-09T04:11:01.728Z,86.218
2017-05-09T04:13:55.639Z,86.188
2017-05-09T04:16:49.784Z,86.150
2017-05-09T04:19:43.681Z,86.527
2017-05-09T04:22:37.603Z,86.113
2017-05-09T04:25:31.505Z,85.950
2017-05-09T04:28:27.219Z,85.805
2017-05-09T04:31:19.442Z,85.853
2017-05-09T04:34:13.292Z,85.915
2017-05-09T04:37:07.252Z,85.852
2017-05-09T04:40:01.180Z,85.882
2017-05-09T04:42:55.337Z,85.737
2017-05-09T04:45:51.036Z,85.352
2017-05-09T04:48:43.156Z,85.253
2017-05-09T04:51:37.132Z,85.368
2017-05-09T04:54:32.881Z,85.250
2017-05-09T04:57:25.172Z,85.588
2017-05-09T05:00:19.104Z,85.536
2017-05-09T05:03:13.025Z,85.224
2017-05-09T05:06:07.057Z,84.874
2017-05-09T05:09:01.091Z,85.126
2017-05-09T05:11:55.014Z,84.947
2017-05-09T05:14:50.898Z,85.066
2017-05-09T05:17:43.056Z,84.946
2017-05-09T05:20:37.133Z,84.284
2017-05-09T05:23:31.228Z,83.853
2017-05-09T05:26:25.167Z,82.871
2017-05-09T05:29:19.189Z,82.924
2017-05-09T05:32:13.207Z,82.757
2017-05-09T05:35:07.181Z,81.968
2017-05-09T05:38:01.239Z,81.578
2017-05-09T05:40:55.307Z,81.318
2017-05-09T05:43:49.339Z,80.802
2017-05-09T05:46:43.931Z,81.051
2017-05-09T05:49:37.929Z,81.204
2017-05-09T05:52:31.901Z,80.667
2017-05-09T05:55:25.968Z,80.399
2017-05-09T05:58:19.969Z,80.362
2017-05-09T06:01:13.991Z,80.178
2017-05-09T06:04:08.025Z,79.416
2017-05-09T06:07:02.116Z,79.760
2017-05-09T06:09:56.153Z,79.121
2017-05-09T06:12:50.232Z,77.840
2017-05-09T06:15:44.376Z,77.345
2017-05-09T06:18:38.432Z,76.867
2017-05-09T06:21:32.577Z,76.502
2017-05-09T06:24:26.748Z,76.186
2017-05-09T06:27:20.860Z,74.536
2017-05-09T06:30:14.954Z,74.154
2017-05-09T06:33:10.760Z,72.195
2017-05-09T06:36:03.266Z,71.908
2017-05-09T06:38:57.394Z,70.391
2017-05-09T06:41:51.616Z,70.916
2017-05-09T06:44:45.837Z,68.872
2017-05-09T06:47:39.969Z,70.871
2017-05-09T06:50:34.032Z,68.559
2017-05-09T06:53:28.190Z,70.516
2017-05-09T06:56:22.417Z,67.935
2017-05-09T06:59:16.696Z,67.307
2017-05-09T07:02:12.734Z,65.689
2017-05-09T07:05:05.432Z,64.725
2017-05-09T07:07:59.680Z,65.862
2017-05-09T07:10:54.096Z,61.927
2017-05-09T07:13:48.478Z,59.385
2017-05-09T07:16:42.888Z,58.756
2017-05-09T07:19:37.465Z,57.937
2017-05-09T07:22:31.833Z,57.018
2017-05-09T07:25:26.289Z,56.041
2017-05-09T07:28:20.734Z,54.793
2017-05-09T07:31:15.345Z,56.135
2017-05-09T07:34:09.872Z,54.575
2017-05-09T07:37:04.416Z,52.431
2017-05-09T07:39:58.920Z,52.818
2017-05-09T07:42:53.491Z,54.469
2017-05-09T07:45:48.003Z,54.274
2017-05-09T07:48:42.640Z,51.545
2017-05-09T07:51:37.256Z,51.363
2017-05-09T07:54:31.889Z,51.639
2017-05-09T07:57:26.527Z,50.399
2017-05-09T08:00:22.816Z,51.546
2017-05-09T08:03:15.799Z,50.412
2017-05-09T08:06:10.618Z,49.737
2017-05-09T08:09:05.211Z,48.237
2017-05-09T08:11:59.720Z,50.107
2017-05-09T08:14:54.325Z,47.892
2017-05-09T08:17:49.184Z,44.918
2017-05-09T08:20:43.932Z,41.999
2017-05-09T08:23:38.916Z,38.610
2017-05-09T08:26:33.921Z,37.252
2017-05-09T08:29:29.060Z,35.390
2017-05-09T08:32:24.107Z,33.968
2017-05-09T08:35:18.932Z,35.064
2017-05-09T08:38:13.485Z,38.886
2017-05-09T08:41:08.124Z,41.584
2017-05-09T08:44:02.691Z,40.839
2017-05-09T08:46:57.245Z,41.409
2017-05-09T08:49:51.948Z,40.748
2017-05-09T08:52:46.776Z,38.109
2017-05-09T08:55:41.416Z,38.090
2017-05-09T08:58:36.129Z,40.511
2017-05-09T09:01:30.560Z,47.292
2017-05-09T09:04:25.003Z,51.243
2017-05-09T09:07:19.361Z,55.119
2017-05-09T09:10:13.799Z,56.125
2017-05-09T09:13:08.485Z,50.218
2017-05-09T09:16:03.466Z,42.625
2017-05-09T09:18:58.743Z,35.211
2017-05-09T09:21:54.197Z,29.604
2017-05-09T09:24:49.640Z,25.335
2017-05-09T09:27:45.125Z,22.500
2017-05-09T09:30:41.010Z,18.791
2017-05-09T09:33:36.639Z,19.928
2017-05-09T09:36:31.913Z,17.866
2017-05-09T09:39:27.248Z,14.349
2017-05-09T09:42:22.568Z,13.824
2017-05-09T09:45:18.044Z,9.136
2017-05-09T09:48:13.454Z,10.118
2017-05-09T09:51:09.062Z,10.559
2017-05-09T09:54:04.360Z,8.098
2017-05-09T09:56:59.826Z,7.351
2017-05-09T09:59:55.238Z,7.255
2017-05-09T10:02:50.607Z,5.351
2017-05-09T10:05:45.927Z,6.317
2017-05-09T10:08:41.273Z,10.350
2017-05-09T10:11:35.943Z,13.389
2017-05-09T10:14:30.646Z,15.186
2017-05-09T10:17:25.242Z,20.131
2017-05-09T10:20:19.959Z,22.364
2017-05-09T10:23:14.330Z,25.171
2017-05-09T10:26:08.694Z,27.867
2017-05-09T10:29:03.044Z,32.046
2017-05-09T10:31:57.380Z,35.240
2017-05-09T10:34:51.762Z,37.081
2017-05-09T10:37:48.032Z,39.301
2017-05-09T10:40:40.806Z,40.907
2017-05-09T10:43:35.246Z,39.802
2017-05-09T10:46:29.755Z,39.776
2017-05-09T10:49:24.426Z,39.865
2017-05-09T10:52:18.964Z,40.371
2017-05-09T10:55:13.398Z,42.944
2017-05-09T10:58:07.847Z,45.142
2017-05-09T11:01:02.282Z,47.394
2017-05-09T11:03:56.676Z,49.245
2017-05-09T11:06:51.089Z,51.971
2017-05-09T11:09:45.377Z,53.814
2017-05-09T11:12:39.526Z,55.657
2017-05-09T11:15:35.557Z,58.429
2017-05-09T11:18:27.916Z,61.413
2017-05-09T11:21:22.121Z,62.621
2017-05-09T11:24:16.372Z,64.755
2017-05-09T11:27:10.587Z,66.365
2017-05-09T11:30:04.906Z,66.809
2017-05-09T11:32:59.334Z,66.863
2017-05-09T11:35:53.538Z,68.585
2017-05-09T11:38:47.637Z,67.792
2017-05-09T11:41:41.929Z,67.225
2017-05-09T11:44:36.196Z,66.852
2017-05-09T11:47:30.480Z,67.165
2017-05-09T11:50:26.358Z,67.393
2017-05-09T11:53:18.886Z,68.747
2017-05-09T11:56:13.028Z,67.729
2017-05-09T11:59:07.283Z,66.646
2017-05-09T12:02:02.016Z,66.375
2017-05-09T12:04:56.324Z,69.819
2017-05-09T12:07:50.757Z,67.101
2017-05-09T12:10:45.151Z,67.383
2017-05-09T12:13:39.370Z,69.573
2017-05-09T12:16:33.677Z,69.532
2017-05-09T12:19:27.969Z,69.865
2017-05-09T12:22:22.220Z,71.327
2017-05-09T12:25:18.188Z,70.728
2017-05-09T12:28:10.724Z,70.910
2017-05-09T12:31:05.038Z,70.504
2017-05-09T12:33:59.426Z,70.006
2017-05-09T12:36:53.789Z,70.144
2017-05-09T12:39:48.158Z,68.876
2017-05-09T12:42:42.398Z,68.361
2017-05-09T12:45:36.690Z,69.079
2017-05-09T12:48:30.951Z,68.682
2017-05-09T12:51:25.345Z,69.586
2017-05-09T12:54:19.673Z,70.049
2017-05-09T12:57:15.767Z,69.387
2017-05-09T13:00:08.436Z,68.116
2017-05-09T13:03:02.914Z,67.359
2017-05-09T13:05:57.398Z,67.739
2017-05-09T13:08:51.779Z,66.241
2017-05-09T13:11:46.169Z,63.053
2017-05-09T13:14:40.559Z,63.763
2017-05-09T13:17:34.920Z,64.568
2017-05-09T13:20:29.303Z,64.556
2017-05-09T13:23:23.678Z,62.116
2017-05-09T13:26:18.025Z,63.479
2017-05-09T13:29:12.302Z,62.582
2017-05-09T13:32:06.826Z,63.016
2017-05-09T13:35:01.378Z,62.828
2017-05-09T13:37:55.798Z,62.148
2017-05-09T13:40:50.220Z,60.024
2017-05-09T13:43:44.530Z,60.264
2017-05-09T13:46:38.971Z,60.069
2017-05-09T13:49:33.370Z,59.406
2017-05-09T13:52:27.682Z,61.092
2017-05-09T13:55:22.106Z,60.643
2017-05-09T13:58:18.231Z,59.583
2017-05-09T14:01:10.978Z,60.407
2017-05-09T14:04:07.257Z,58.997
2017-05-09T14:06:59.927Z,60.904
2017-05-09T14:09:54.368Z,60.442
2017-05-09T14:12:48.725Z,60.198
2017-05-09T14:15:43.310Z,59.418
2017-05-09T14:18:37.704Z,58.319
2017-05-09T14:21:32.015Z,60.444
2017-05-09T14:24:28.491Z,60.383
2017-05-09T14:27:21.461Z,59.056
2017-05-09T14:30:17.539Z,58.222
2017-05-09T14:33:10.037Z,59.192
2017-05-09T14:36:04.314Z,59.643
2017-05-09T14:38:58.626Z,60.105
2017-05-09T14:41:52.926Z,59.284
2017-05-09T14:44:47.182Z,57.690
2017-05-09T14:47:41.588Z,60.800
2017-05-09T14:50:35.938Z,58.914
2017-05-09T14:53:30.282Z,59.145
2017-05-09T14:56:24.537Z,57.750
2017-05-09T14:59:18.890Z,59.980
2017-05-09T15:02:13.200Z,58.814
2017-05-09T15:05:07.563Z,58.833
2017-05-09T15:08:01.836Z,58.790
2017-05-09T15:10:56.073Z,58.192
2017-05-09T15:13:50.551Z,58.416
2017-05-09T15:16:44.871Z,57.544
2017-05-09T15:19:39.249Z,56.933
2017-05-09T15:22:33.678Z,58.138
2017-05-09T15:25:28.028Z,56.993
2017-05-09T15:28:22.317Z,57.558
2017-05-09T15:31:16.747Z,57.013
2017-05-09T15:34:11.156Z,59.523
2017-05-09T15:37:05.466Z,58.683
2017-05-09T15:39:59.856Z,57.420
2017-05-09T15:42:54.142Z,58.271
2017-05-09T15:45:48.447Z,58.281
2017-05-09T15:48:42.754Z,58.911
2017-05-09T15:51:37.162Z,58.463
2017-05-09T15:54:31.341Z,56.896
2017-05-09T15:57:25.583Z,57.843
2017-05-09T16:00:19.959Z,58.123
2017-05-09T16:03:14.348Z,57.642
2017-05-09T16:06:08.702Z,57.418
2017-05-09T16:09:03.098Z,56.428
2017-05-09T16:11:57.469Z,58.799
2017-05-09T16:14:51.678Z,58.525
2017-05-09T16:17:45.838Z,59.359
2017-05-09T16:20:40.119Z,57.275
2017-05-09T16:23:34.423Z,59.292
2017-05-09T16:26:28.844Z,58.712
2017-05-09T16:29:23.153Z,59.834
2017-05-09T16:32:17.459Z,58.208
2017-05-09T16:35:11.799Z,56.527
2017-05-09T16:38:06.112Z,58.034
2017-05-09T16:41:00.509Z,58.915
2017-05-09T16:43:54.832Z,59.707
2017-05-09T16:46:49.150Z,59.930
2017-05-09T16:49:43.515Z,57.413
2017-05-09T16:52:37.820Z,57.925
2017-05-09T16:55:32.196Z,58.381
2017-05-09T16:58:26.596Z,57.827
2017-05-09T17:01:20.960Z,58.281
2017-05-09T17:04:15.254Z,58.829
2017-05-09T17:07:09.584Z,58.218
2017-05-09T17:10:03.930Z,57.958
2017-05-09T17:12:58.220Z,59.309
2017-05-09T17:15:52.563Z,58.836
2017-05-09T17:18:46.894Z,59.266
2017-05-09T17:21:41.198Z,59.622
2017-05-09T17:24:35.464Z,59.058
2017-05-09T17:27:29.745Z,59.973
2017-05-09T17:30:24.008Z,58.561
2017-05-09T17:33:18.424Z,59.401
2017-05-09T17:36:12.702Z,60.121
2017-05-09T17:39:06.947Z,58.521
2017-05-09T17:42:01.225Z,58.693
2017-05-09T17:44:55.517Z,59.471
2017-05-09T17:47:49.943Z,58.703
2017-05-09T17:50:44.054Z,58.917
2017-05-09T17:53:38.322Z,59.695
2017-05-09T17:56:32.570Z,59.410
2017-05-09T17:59:26.854Z,60.566
2017-05-09T18:02:21.236Z,59.866
2017-05-09T18:05:15.550Z,59.915
2017-05-09T18:08:09.893Z,59.756
2017-05-09T18:11:04.136Z,59.691
2017-05-09T18:13:58.348Z,60.545
2017-05-09T18:16:52.662Z,61.150
2017-05-09T18:19:46.961Z,61.815
2017-05-09T18:22:41.176Z,60.417
2017-05-09T18:25:35.488Z,61.446
2017-05-09T18:28:29.822Z,61.557
2017-05-09T18:31:24.125Z,60.009
2017-05-09T18:34:18.476Z,61.971
2017-05-09T18:37:12.829Z,61.779
2017-05-09T18:40:07.035Z,61.731
2017-05-09T18:43:01.343Z,62.233
2017-05-09T18:45:55.541Z,63.412
2017-05-09T18:48:49.791Z,63.063
2017-05-09T18:51:44.110Z,63.631
2017-05-09T18:54:38.314Z,64.788
2017-05-09T18:57:32.564Z,65.644
2017-05-09T19:00:26.804Z,65.787
2017-05-09T19:03:20.974Z,65.370
2017-05-09T19:06:15.188Z,66.034
2017-05-09T19:09:09.328Z,65.529
2017-05-09T19:12:03.583Z,65.372
2017-05-09T19:14:57.733Z,65.818
2017-05-09T19:17:51.897Z,66.153
2017-05-09T19:20:46.083Z,66.817
2017-05-09T19:23:40.248Z,67.199
2017-05-09T19:26:34.440Z,68.041
2017-05-09T19:29:28.643Z,67.611
2017-05-09T19:32:22.898Z,67.509
2017-05-09T19:35:17.085Z,67.423
2017-05-09T19:38:11.364Z,67.691
2017-05-09T19:41:05.534Z,67.270
2017-05-09T19:43:59.885Z,66.769
2017-05-09T19:46:54.091Z,67.232
2017-05-09T19:49:48.221Z,67.483
2017-05-09T19:52:42.393Z,67.135
2017-05-09T19:55:38.226Z,67.233
2017-05-09T19:58:30.644Z,67.062
2017-05-09T20:01:24.735Z,67.426
2017-05-09T20:04:18.864Z,67.664
2017-05-09T20:07:13.064Z,67.944
2017-05-09T20:10:07.161Z,67.776
2017-05-09T20:13:01.313Z,68.359
2017-05-09T20:15:57.125Z,67.791
2017-05-09T20:18:49.697Z,67.920
2017-05-09T20:21:44.067Z,67.749
2017-05-09T20:24:39.739Z,68.148
2017-05-09T20:27:32.164Z,67.924
2017-05-09T20:30:26.281Z,67.961
2017-05-09T20:33:20.358Z,67.936
2017-05-09T20:36:14.430Z,68.045
2017-05-09T20:39:08.488Z,68.102
2017-05-09T20:42:02.632Z,68.867
2017-05-09T20:44:58.522Z,69.466
2017-05-09T20:47:50.844Z,68.558
2017-05-09T20:50:45.031Z,68.390
2017-05-09T20:53:39.110Z,69.754
2017-05-09T20:56:33.240Z,70.123
2017-05-09T20:59:27.499Z,68.909
2017-05-09T21:02:23.088Z,69.328
2017-05-09T21:05:15.621Z,69.507
2017-05-09T21:08:09.649Z,69.314
2017-05-09T21:11:03.726Z,68.935
2017-05-09T21:13:57.972Z,68.477
2017-05-09T21:16:51.971Z,68.672
2017-05-09T21:19:46.140Z,69.240
2017-05-09T21:22:40.224Z,69.039
2017-05-09T21:25:34.231Z,69.166
2017-05-09T21:28:28.271Z,69.791
2017-05-09T21:31:22.519Z,69.819
2017-05-09T21:34:16.669Z,70.105
2017-05-09T21:37:10.911Z,70.115
2017-05-09T21:40:05.081Z,70.676
2017-05-09T21:42:59.313Z,70.676
2017-05-09T21:45:53.561Z,70.546
2017-05-09T21:48:49.533Z,70.364
2017-05-09T21:51:42.025Z,70.809
2017-05-09T21:54:36.282Z,70.479
2017-05-09T21:57:30.541Z,70.587
2017-05-09T22:00:24.666Z,70.483
2017-05-09T22:03:18.946Z,69.876
2017-05-09T22:06:13.209Z,70.250
2017-05-09T22:09:07.438Z,71.378
2017-05-09T22:12:01.717Z,71.117
2017-05-09T22:14:55.942Z,70.960
2017-05-09T22:17:50.164Z,70.699
2017-05-09T22:20:46.157Z,70.140
2017-05-09T22:23:38.571Z,70.491
2017-05-09T22:26:32.813Z,70.063
2017-05-09T22:29:27.049Z,69.953
2017-05-09T22:32:21.279Z,70.363
2017-05-09T22:35:17.373Z,69.855
2017-05-09T22:38:09.841Z,70.338
2017-05-09T22:41:04.042Z,71.218
2017-05-09T22:43:58.369Z,70.655
2017-05-09T22:46:52.551Z,70.454
2017-05-09T22:49:46.725Z,69.987
2017-05-09T22:52:41.013Z,69.629
2017-05-09T22:55:35.193Z,69.650
2017-05-09T22:58:29.422Z,69.508
2017-05-09T23:01:23.723Z,69.425
2017-05-09T23:04:17.927Z,70.444
2017-05-09T23:07:12.235Z,70.678
2017-05-09T23:10:06.474Z,69.564
2017-05-09T23:13:00.769Z,70.574
2017-05-09T23:15:56.916Z,69.787
2017-05-09T23:18:49.237Z,69.921
2017-05-09T23:21:43.454Z,69.354
2017-05-09T23:24:37.671Z,69.667
2017-05-09T23:27:31.847Z,69.481
2017-05-09T23:30:26.074Z,69.662
2017-05-09T23:33:22.044Z,69.636
2017-05-09T23:36:14.547Z,69.518
2017-05-09T23:39:08.723Z,69.868
2017-05-09T23:42:03.033Z,70.339
2017-05-09T23:44:57.253Z,69.725
2017-05-09T23:47:51.531Z,69.846
2017-05-09T23:50:45.737Z,69.906
2017-05-09T23:53:40.017Z,69.859
2017-05-09T23:56:34.200Z,69.845
2017-05-09T23:59:28.419Z,70.242
